createdAt,value
2017-09-19T00:00:47.583Z,79.33
2017-09-19T00:03:23.447Z,79.35
2017-09-19T00:05:56.794Z,79.38
2017-09-19T00:08:29.906Z,79.37
2017-09-19T00:11:02.867Z,79.36
2017-09-19T00:13:36.351Z,79.40
2017-09-19T00:16:10.210Z,79.39
2017-09-19T00:18:45.165Z,79.36
2017-09-19T00:21:17.831Z,79.39
2017-09-19T00:23:52.252Z,79.42
2017-09-19T00:26:24.560Z,79.45
2017-09-19T00:28:58.955Z,79.38
2017-09-19T00:31:31.559Z,79.44
2017-09-19T00:34:04.224Z,79.50
2017-09-19T00:36:37.786Z,79.52
2017-09-19T00:39:11.899Z,79.52
2017-09-19T00:41:43.640Z,79.56
2017-09-19T00:44:18.530Z,79.60
2017-09-19T00:46:51.330Z,79.55
2017-09-19T00:49:26.914Z,79.63
2017-09-19T00:52:03.505Z,79.57
2017-09-19T00:54:37.016Z,79.55
2017-09-19T00:57:10.320Z,79.56
2017-09-19T00:59:42.502Z,79.58
2017-09-19T01:02:15.195Z,79.60
2017-09-19T01:04:48.557Z,79.59
2017-09-19T01:07:20.409Z,79.55
2017-09-19T01:09:51.752Z,79.62
2017-09-19T01:12:24.154Z,79.67
2017-09-19T01:14:55.588Z,79.65
2017-09-19T01:17:30.438Z,79.74
2017-09-19T01:20:02.302Z,79.64
2017-09-19T01:25:13.372Z,79.75
2017-09-19T01:27:47.189Z,79.72
2017-09-19T01:30:17.930Z,79.73
2017-09-19T01:32:49.750Z,79.74
2017-09-19T01:35:23.969Z,79.76
2017-09-19T01:37:55.103Z,79.80
2017-09-19T01:40:28.211Z,79.75
2017-09-19T01:43:01.402Z,79.78
2017-09-19T01:45:34.700Z,79.78
2017-09-19T01:48:09.291Z,79.78
2017-09-19T01:50:42.038Z,79.81
2017-09-19T01:53:15.319Z,79.81
2017-09-19T01:55:48.786Z,79.78
2017-09-19T01:58:22.592Z,79.74
2017-09-19T02:00:57.189Z,79.80
2017-09-19T02:03:29.573Z,79.82
2017-09-19T02:06:00.216Z,79.84
2017-09-19T02:08:31.796Z,79.84
2017-09-19T02:11:06.094Z,79.87
2017-09-19T02:13:38.356Z,79.88
2017-09-19T02:16:10.510Z,79.85
2017-09-19T02:18:43.925Z,79.87
2017-09-19T02:21:16.611Z,79.91
2017-09-19T02:23:49.218Z,79.92
2017-09-19T02:26:22.311Z,79.89
2017-09-19T02:28:54.982Z,79.89
2017-09-19T02:31:27.337Z,79.92
2017-09-19T02:33:59.700Z,79.95
2017-09-19T02:36:32.883Z,80.00
2017-09-19T02:39:05.362Z,80.01
2017-09-19T02:41:38.815Z,80.08
2017-09-19T02:44:13.890Z,80.01
2017-09-19T02:46:46.655Z,80.02
2017-09-19T02:49:19.731Z,80.06
2017-09-19T02:51:51.332Z,80.05
2017-09-19T02:54:22.964Z,80.08
2017-09-19T02:56:55.517Z,80.10
2017-09-19T02:59:29.709Z,80.14
2017-09-19T03:02:02.291Z,80.11
2017-09-19T03:04:32.708Z,80.08
2017-09-19T03:07:05.585Z,80.12
2017-09-19T03:09:40.964Z,80.15
2017-09-19T03:12:14.028Z,80.12
2017-09-19T03:14:47.558Z,80.14
2017-09-19T03:17:19.714Z,80.18
2017-09-19T03:19:53.460Z,80.18
2017-09-19T03:22:27.453Z,80.21
2017-09-19T03:25:00.785Z,80.21
2017-09-19T03:27:32.350Z,80.21
2017-09-19T03:30:05.264Z,80.20
2017-09-19T03:32:37.892Z,80.17
2017-09-19T03:35:09.214Z,80.24
2017-09-19T03:37:41.068Z,80.23
2017-09-19T03:40:18.554Z,80.21
2017-09-19T03:42:53.618Z,80.23
2017-09-19T03:45:25.326Z,80.23
2017-09-19T03:47:57.751Z,80.25
2017-09-19T03:50:29.670Z,80.22
2017-09-19T03:53:01.864Z,80.22
2017-09-19T03:55:35.243Z,80.21
2017-09-19T03:58:06.383Z,80.23
2017-09-19T04:00:40.049Z,80.21
2017-09-19T04:03:12.475Z,80.20
2017-09-19T04:05:45.082Z,80.21
2017-09-19T04:08:19.890Z,80.18
2017-09-19T04:10:53.605Z,80.19
2017-09-19T04:13:25.244Z,80.16
2017-09-19T04:16:01.853Z,80.17
2017-09-19T04:18:36.698Z,80.14
2017-09-19T04:21:09.389Z,80.18
2017-09-19T04:23:45.301Z,80.15
2017-09-19T04:26:19.114Z,80.13
2017-09-19T04:28:49.276Z,80.15
2017-09-19T04:31:22.795Z,80.15
2017-09-19T04:33:54.955Z,80.16
2017-09-19T04:36:28.056Z,80.16
2017-09-19T04:38:58.915Z,80.20
2017-09-19T04:41:37.860Z,80.18
2017-09-19T04:44:22.098Z,80.14
2017-09-19T04:46:58.232Z,80.13
2017-09-19T04:49:28.410Z,80.18
2017-09-19T04:51:59.070Z,80.19
2017-09-19T04:54:30.605Z,80.16
2017-09-19T04:57:19.226Z,80.20
2017-09-19T05:00:06.076Z,80.19
2017-09-19T05:02:36.811Z,80.19
2017-09-19T05:05:06.658Z,80.22
2017-09-19T05:07:36.588Z,80.24
2017-09-19T05:10:12.873Z,80.26
2017-09-19T05:12:48.102Z,80.28
2017-09-19T05:15:19.470Z,80.27
2017-09-19T05:17:53.648Z,80.27
2017-09-19T05:20:23.501Z,80.31
2017-09-19T05:22:55.553Z,80.29
2017-09-19T05:25:28.370Z,80.28
2017-09-19T05:28:01.821Z,80.39
2017-09-19T05:30:35.054Z,80.43
2017-09-19T05:33:06.491Z,80.46
2017-09-19T05:35:39.531Z,80.51
2017-09-19T05:38:13.665Z,80.57
2017-09-19T05:40:47.230Z,80.50
2017-09-19T05:43:20.273Z,80.56
2017-09-19T05:45:52.637Z,80.61
2017-09-19T05:48:25.440Z,80.62
2017-09-19T05:50:58.073Z,80.60
2017-09-19T05:53:31.188Z,80.72
2017-09-19T05:56:04.361Z,80.66
2017-09-19T05:58:36.136Z,80.69
2017-09-19T06:01:06.745Z,80.72
2017-09-19T06:03:39.552Z,80.74
2017-09-19T06:06:13.587Z,80.77
2017-09-19T06:08:54.953Z,80.77
2017-09-19T06:11:28.926Z,80.76
2017-09-19T06:14:01.858Z,80.82
2017-09-19T06:16:34.490Z,80.78
2017-09-19T06:19:06.185Z,80.77
2017-09-19T06:21:39.196Z,80.81
2017-09-19T06:24:11.811Z,80.85
2017-09-19T06:26:43.924Z,80.87
2017-09-19T06:29:15.476Z,81.05
2017-09-19T06:31:48.132Z,81.25
2017-09-19T06:34:20.919Z,81.33
2017-09-19T06:36:53.739Z,81.42
2017-09-19T06:39:35.664Z,81.50
2017-09-19T06:42:09.058Z,81.63
2017-09-19T06:44:40.277Z,81.56
2017-09-19T06:47:12.963Z,81.62
2017-09-19T06:49:45.564Z,81.53
2017-09-19T06:52:18.005Z,81.57
2017-09-19T06:54:49.973Z,81.64
2017-09-19T06:57:22.746Z,81.83
2017-09-19T06:59:53.474Z,81.67
2017-09-19T07:02:25.945Z,81.76
2017-09-19T07:04:58.727Z,81.77
2017-09-19T07:07:31.050Z,82.08
2017-09-19T07:10:12.169Z,82.03
2017-09-19T07:12:44.657Z,82.17
2017-09-19T07:15:17.894Z,82.24
2017-09-19T07:17:48.683Z,82.38
2017-09-19T07:20:20.409Z,82.52
2017-09-19T07:22:52.913Z,82.17
2017-09-19T07:25:25.009Z,82.28
2017-09-19T07:28:01.757Z,82.70
2017-09-19T07:30:35.122Z,82.25
2017-09-19T07:33:07.511Z,82.20
2017-09-19T07:35:40.922Z,82.49
2017-09-19T07:38:15.792Z,82.41
2017-09-19T07:40:50.530Z,82.13
2017-09-19T07:43:26.502Z,82.06
2017-09-19T07:46:01.908Z,82.08
2017-09-19T07:48:41.077Z,81.94
2017-09-19T07:51:13.538Z,82.00
2017-09-19T07:53:46.281Z,82.03
2017-09-19T07:56:20.135Z,82.14
2017-09-19T07:58:52.238Z,82.01
2017-09-19T08:01:27.553Z,82.03
2017-09-19T08:03:58.065Z,82.28
2017-09-19T08:06:29.628Z,82.05
2017-09-19T08:09:02.162Z,82.06
2017-09-19T08:14:09.648Z,81.99
2017-09-19T08:16:41.164Z,82.00
2017-09-19T08:19:15.848Z,81.96
2017-09-19T08:21:49.274Z,81.98
2017-09-19T08:24:21.718Z,82.12
2017-09-19T08:26:53.703Z,82.31
2017-09-19T08:29:29.127Z,82.15
2017-09-19T08:34:55.378Z,82.22
2017-09-19T08:37:30.258Z,82.24
2017-09-19T08:40:02.402Z,82.14
2017-09-19T08:42:36.519Z,82.29
2017-09-19T08:45:08.733Z,82.49
2017-09-19T08:47:41.741Z,82.33
2017-09-19T08:50:15.274Z,82.28
2017-09-19T08:52:46.574Z,82.64
2017-09-19T08:55:19.480Z,82.47
2017-09-19T08:57:51.924Z,82.47
2017-09-19T09:00:24.722Z,82.26
2017-09-19T09:03:00.786Z,82.09
2017-09-19T09:05:35.395Z,82.03
2017-09-19T09:08:08.435Z,82.34
2017-09-19T09:10:40.213Z,82.06
2017-09-19T09:13:11.809Z,82.08
2017-09-19T09:15:43.959Z,81.84
2017-09-19T09:18:12.657Z,81.75
2017-09-19T09:20:47.117Z,81.67
2017-09-19T09:23:19.318Z,81.80
2017-09-19T09:25:52.030Z,81.88
2017-09-19T09:28:25.758Z,81.85
2017-09-19T09:30:58.558Z,81.89
2017-09-19T09:33:30.173Z,81.89
2017-09-19T09:36:02.256Z,82.10
2017-09-19T09:38:39.751Z,81.81
2017-09-19T09:41:11.328Z,82.01
2017-09-19T09:43:44.090Z,81.90
2017-09-19T09:46:21.952Z,81.79
2017-09-19T09:48:57.456Z,81.84
2017-09-19T09:51:29.071Z,81.92
2017-09-19T09:54:04.116Z,81.77
2017-09-19T09:56:37.647Z,81.72
2017-09-19T09:59:09.610Z,81.80
2017-09-19T10:01:41.669Z,81.76
2017-09-19T10:04:16.726Z,81.83
2017-09-19T10:06:52.752Z,81.95
2017-09-19T10:09:28.596Z,82.11
2017-09-19T10:12:00.150Z,82.06
2017-09-19T10:14:33.037Z,81.87
2017-09-19T10:17:07.215Z,81.88
2017-09-19T10:19:39.795Z,81.90
2017-09-19T10:22:14.356Z,81.67
2017-09-19T10:24:48.827Z,81.60
2017-09-19T10:27:21.624Z,81.47
2017-09-19T10:29:57.302Z,81.46
2017-09-19T10:32:31.091Z,81.43
2017-09-19T10:35:02.635Z,81.44
2017-09-19T10:37:37.688Z,81.54
2017-09-19T10:40:13.338Z,81.32
2017-09-19T10:42:49.349Z,81.13
2017-09-19T10:45:21.528Z,81.00
2017-09-19T10:47:55.562Z,80.95
2017-09-19T10:50:26.762Z,81.22
2017-09-19T10:53:01.517Z,81.22
2017-09-19T10:55:34.040Z,81.28
2017-09-19T10:58:06.404Z,81.23
2017-09-19T11:00:42.185Z,80.69
2017-09-19T11:03:17.233Z,80.91
2017-09-19T11:05:51.962Z,80.96
2017-09-19T11:08:25.937Z,80.57
2017-09-19T11:10:58.991Z,80.88
2017-09-19T11:13:32.723Z,80.88
2017-09-19T11:16:05.773Z,80.92
2017-09-19T11:18:37.769Z,80.97
2017-09-19T11:21:18.375Z,81.07
2017-09-19T11:23:51.141Z,81.14
2017-09-19T11:26:22.127Z,81.12
2017-09-19T11:28:56.869Z,80.94
2017-09-19T11:31:29.455Z,81.07
2017-09-19T11:34:01.420Z,81.06
2017-09-19T11:36:34.589Z,81.11
2017-09-19T11:39:08.242Z,81.16
2017-09-19T11:41:44.294Z,81.21
2017-09-19T11:44:16.537Z,81.11
2017-09-19T11:46:51.580Z,80.98
2017-09-19T11:49:23.392Z,80.60
2017-09-19T11:51:54.770Z,80.48
2017-09-19T11:54:29.961Z,80.11
2017-09-19T11:57:04.881Z,79.58
2017-09-19T11:59:39.253Z,80.07
2017-09-19T12:02:11.730Z,79.77
2017-09-19T12:04:44.360Z,79.26
2017-09-19T12:07:17.428Z,79.34
2017-09-19T12:09:49.272Z,79.69
2017-09-19T12:12:25.175Z,79.48
2017-09-19T12:15:01.893Z,79.07
2017-09-19T12:17:34.662Z,79.21
2017-09-19T12:20:06.824Z,79.40
2017-09-19T12:22:47.726Z,79.64
2017-09-19T12:25:20.843Z,79.73
2017-09-19T12:27:55.152Z,78.70
2017-09-19T12:30:27.433Z,78.93
2017-09-19T12:33:00.131Z,78.93
2017-09-19T12:35:34.056Z,78.61
2017-09-19T12:38:05.866Z,78.90
2017-09-19T12:40:38.204Z,79.36
2017-09-19T12:43:11.862Z,78.88
2017-09-19T12:45:43.313Z,78.91
2017-09-19T12:48:15.116Z,78.38
2017-09-19T12:50:49.382Z,78.53
2017-09-19T12:53:21.651Z,77.62
2017-09-19T12:55:54.873Z,77.68
2017-09-19T12:58:29.225Z,77.25
2017-09-19T13:01:00.823Z,77.89
2017-09-19T13:03:32.756Z,77.75
2017-09-19T13:06:06.101Z,78.29
2017-09-19T13:08:40.699Z,78.19
2017-09-19T13:11:13.502Z,77.00
2017-09-19T13:13:47.020Z,77.73
2017-09-19T13:16:22.503Z,78.01
2017-09-19T13:18:55.763Z,77.03
2017-09-19T13:24:04.949Z,76.50
2017-09-19T13:26:36.172Z,76.42
2017-09-19T13:29:09.017Z,76.86
2017-09-19T13:31:51.451Z,76.27
2017-09-19T13:34:24.117Z,75.58
2017-09-19T13:36:58.518Z,75.88
2017-09-19T13:39:31.598Z,75.53
2017-09-19T13:42:07.729Z,74.88
2017-09-19T13:44:42.108Z,75.37
2017-09-19T13:47:16.467Z,74.79
2017-09-19T13:49:48.406Z,74.70
2017-09-19T13:52:21.324Z,74.72
2017-09-19T13:54:57.467Z,74.46
2017-09-19T13:57:33.524Z,74.82
2017-09-19T14:00:06.645Z,75.67
2017-09-19T14:02:46.972Z,75.36
2017-09-19T14:05:18.708Z,75.31
2017-09-19T14:07:52.459Z,75.77
2017-09-19T14:10:27.858Z,75.42
2017-09-19T14:12:59.541Z,75.44
2017-09-19T14:15:31.931Z,75.95
2017-09-19T14:18:03.688Z,76.25
2017-09-19T14:20:37.556Z,75.43
2017-09-19T14:23:09.309Z,75.54
2017-09-19T14:25:41.949Z,75.21
2017-09-19T14:28:14.802Z,75.22
2017-09-19T14:30:49.036Z,74.25
2017-09-19T14:33:26.291Z,74.22
2017-09-19T14:36:00.510Z,74.95
2017-09-19T14:38:32.437Z,74.99
2017-09-19T14:41:05.894Z,74.87
2017-09-19T14:43:39.152Z,75.01
2017-09-19T14:46:14.231Z,75.05
2017-09-19T14:48:46.206Z,75.23
2017-09-19T14:51:18.889Z,75.83
2017-09-19T14:53:51.593Z,75.74
2017-09-19T14:56:25.916Z,75.07
2017-09-19T14:58:58.230Z,75.67
2017-09-19T15:01:31.024Z,74.83
2017-09-19T15:04:05.818Z,74.85
2017-09-19T15:06:40.738Z,73.84
2017-09-19T15:09:16.072Z,74.76
2017-09-19T15:11:48.179Z,74.35
2017-09-19T15:14:21.105Z,73.42
2017-09-19T15:16:52.759Z,73.88
2017-09-19T15:19:24.666Z,73.92
2017-09-19T15:22:12.327Z,74.25
2017-09-19T15:24:45.355Z,74.72
2017-09-19T15:27:16.058Z,74.70
2017-09-19T15:29:47.669Z,74.61
2017-09-19T15:32:17.743Z,73.98
2017-09-19T15:34:50.459Z,73.94
2017-09-19T15:37:29.356Z,75.21
2017-09-19T15:40:04.352Z,74.27
2017-09-19T15:42:34.629Z,74.49
2017-09-19T15:45:07.279Z,75.35
2017-09-19T15:47:41.193Z,75.27
2017-09-19T15:50:10.955Z,75.10
2017-09-19T15:52:43.175Z,75.11
2017-09-19T15:55:14.772Z,75.42
2017-09-19T15:57:57.444Z,75.39
2017-09-19T16:00:30.433Z,75.50
2017-09-19T16:03:03.230Z,75.85
2017-09-19T16:05:45.520Z,75.79
2017-09-19T16:08:20.562Z,75.18
2017-09-19T16:10:58.209Z,76.11
2017-09-19T16:13:41.272Z,75.75
2017-09-19T16:16:22.883Z,76.22
2017-09-19T16:19:01.844Z,75.98
2017-09-19T16:21:43.500Z,76.34
2017-09-19T16:24:24.825Z,75.78
2017-09-19T16:27:06.674Z,75.64
2017-09-19T16:29:49.431Z,76.08
2017-09-19T16:32:26.486Z,76.21
2017-09-19T16:35:04.686Z,76.01
2017-09-19T16:37:45.012Z,75.83
2017-09-19T16:40:29.054Z,75.75
2017-09-19T16:43:14.624Z,75.48
2017-09-19T16:51:33.720Z,74.49
2017-09-19T16:54:19.767Z,74.66
2017-09-19T16:57:05.265Z,74.35
2017-09-19T17:02:37.409Z,74.50
2017-09-19T17:05:20.659Z,74.86
2017-09-19T17:08:06.737Z,74.78
2017-09-19T17:10:53.198Z,74.77
2017-09-19T17:13:38.325Z,74.77
2017-09-19T17:16:24.396Z,74.81
2017-09-19T17:19:01.446Z,74.83
2017-09-19T17:24:33.101Z,75.14
2017-09-19T17:30:06.670Z,75.12
2017-09-19T17:32:51.383Z,75.22
2017-09-19T17:35:39.006Z,75.12
2017-09-19T17:38:17.667Z,75.10
2017-09-19T17:40:58.934Z,75.20
2017-09-19T17:43:38.894Z,75.16
2017-09-19T17:46:24.809Z,75.08
2017-09-19T17:49:13.609Z,75.08
2017-09-19T17:52:00.057Z,74.93
2017-09-19T17:54:43.281Z,74.96
2017-09-19T17:57:30.093Z,74.80
2017-09-19T18:00:14.065Z,74.76
2017-09-19T18:05:28.277Z,74.87
2017-09-19T18:08:14.189Z,74.77
2017-09-19T18:10:57.101Z,74.81
2017-09-19T18:13:30.793Z,74.83
2017-09-19T18:16:03.692Z,74.95
2017-09-19T18:21:26.072Z,75.03
2017-09-19T18:23:56.978Z,75.15
2017-09-19T18:26:30.473Z,75.22
2017-09-19T18:34:38.494Z,75.28
2017-09-19T18:37:11.725Z,75.49
2017-09-19T18:39:52.010Z,75.46
2017-09-19T18:42:30.321Z,75.96
2017-09-19T18:47:45.315Z,75.86
2017-09-19T18:50:18.350Z,75.76
2017-09-19T18:52:53.325Z,75.74
2017-09-19T18:55:27.019Z,75.98
2017-09-19T18:58:00.827Z,76.09
2017-09-19T19:00:30.768Z,76.38
2017-09-19T19:03:01.541Z,76.18
2017-09-19T19:05:32.431Z,76.31
2017-09-19T19:08:02.531Z,76.30
2017-09-19T19:10:44.275Z,76.55
2017-09-19T19:13:19.007Z,76.39
2017-09-19T19:15:51.659Z,76.30
2017-09-19T19:18:24.185Z,76.55
2017-09-19T19:20:55.042Z,76.37
2017-09-19T19:23:27.605Z,76.37
2017-09-19T19:25:58.876Z,76.35
2017-09-19T19:31:18.326Z,76.60
2017-09-19T19:33:49.253Z,76.57
2017-09-19T19:36:23.969Z,76.67
2017-09-19T19:39:00.088Z,76.51
2017-09-19T19:41:31.377Z,76.45
2017-09-19T19:44:05.832Z,76.45
2017-09-19T19:46:41.145Z,76.52
2017-09-19T19:49:28.522Z,76.44
2017-09-19T19:52:08.071Z,76.63
2017-09-19T19:54:50.946Z,76.83
2017-09-19T19:57:32.983Z,76.81
2017-09-19T20:00:13.746Z,76.73
2017-09-19T20:05:39.135Z,76.91
2017-09-19T20:08:13.959Z,76.93
2017-09-19T20:10:58.586Z,76.93
2017-09-19T20:13:42.923Z,76.99
2017-09-19T20:16:26.870Z,77.04
2017-09-19T20:19:10.796Z,76.94
2017-09-19T20:21:58.629Z,77.05
2017-09-19T20:24:47.690Z,77.09
2017-09-19T20:27:29.172Z,77.32
2017-09-19T20:33:08.221Z,77.27
2017-09-19T20:35:50.266Z,77.29
2017-09-19T20:38:36.291Z,77.39
2017-09-19T20:41:29.710Z,77.53
2017-09-19T20:49:51.163Z,77.51
2017-09-19T20:52:36.613Z,77.70
2017-09-19T20:55:21.896Z,77.79
2017-09-19T21:00:57.142Z,77.76
2017-09-19T21:03:45.634Z,77.75
2017-09-19T21:06:32.532Z,78.06
2017-09-19T21:09:20.468Z,78.08
2017-09-19T21:12:07.577Z,78.11
2017-09-19T21:14:54.988Z,78.37
2017-09-19T21:17:44.272Z,78.15
2017-09-19T21:20:24.874Z,78.06
2017-09-19T21:25:57.364Z,78.16
2017-09-19T21:28:40.710Z,78.12
2017-09-19T21:31:23.704Z,78.24
2017-09-19T21:34:07.265Z,78.48
2017-09-19T21:36:52.266Z,78.49
2017-09-19T21:42:27.080Z,78.41
2017-09-19T21:48:02.849Z,78.99
2017-09-19T21:50:49.059Z,78.93
2017-09-19T21:53:32.926Z,78.96
2017-09-19T21:56:15.619Z,79.06
2017-09-19T21:59:02.363Z,78.89
2017-09-19T22:01:46.697Z,79.14
2017-09-19T22:04:35.527Z,78.81
2017-09-19T22:07:20.615Z,79.18
2017-09-19T22:10:06.744Z,79.39
2017-09-19T22:12:51.677Z,79.17
2017-09-19T22:15:35.592Z,79.55
2017-09-19T22:18:21.990Z,79.48
2017-09-19T22:21:09.710Z,79.11
2017-09-19T22:23:52.612Z,79.36
2017-09-19T22:26:37.184Z,79.45
2017-09-19T22:29:20.548Z,79.34
2017-09-19T22:31:50.099Z,79.51
2017-09-19T22:34:18.875Z,79.37
2017-09-19T22:36:49.833Z,79.13
2017-09-19T22:39:20.456Z,79.21
2017-09-19T22:41:52.290Z,79.22
2017-09-19T22:44:24.109Z,79.04
2017-09-19T22:46:54.000Z,79.07
2017-09-19T22:49:25.502Z,79.39
2017-09-19T22:51:54.341Z,79.18
2017-09-19T22:54:23.518Z,79.22
2017-09-19T22:56:53.414Z,79.27
2017-09-19T22:59:24.738Z,79.29
2017-09-19T23:01:55.278Z,79.41
2017-09-19T23:04:24.732Z,79.19
2017-09-19T23:06:54.565Z,79.60
2017-09-19T23:09:23.857Z,79.25
2017-09-19T23:12:02.248Z,79.54
2017-09-19T23:14:36.211Z,79.51
2017-09-19T23:17:14.863Z,79.38
2017-09-19T23:19:45.950Z,79.27
2017-09-19T23:22:16.787Z,79.35
2017-09-19T23:24:48.610Z,79.34
2017-09-19T23:27:19.916Z,79.72
2017-09-19T23:29:51.026Z,80.00
2017-09-19T23:32:22.145Z,79.77
2017-09-19T23:34:53.159Z,79.58
2017-09-19T23:37:24.089Z,80.07
2017-09-19T23:39:54.694Z,79.97
2017-09-19T23:42:27.391Z,80.09
2017-09-19T23:44:57.560Z,79.76
2017-09-19T23:47:26.879Z,79.77
2017-09-19T23:49:56.933Z,79.96
2017-09-19T23:52:27.239Z,80.25
2017-09-19T23:54:58.020Z,80.15
2017-09-19T23:57:28.363Z,80.21
2017-09-19T23:59:59.568Z,80.23
